Time,TemperatureF,DewpointF,PressureIn,WindDirection,WindDirectionDegrees,WindSpeedMPH,WindSpeedGustMPH,Humidity,HourlyPrecipIn,Conditions,Clouds,dailyrainin,SolarRadiationWatts/m^2,SoftwareType,DateUTC
2013-09-05 00:01:00,69.0,42.0,-100.00,West,279,10.0,12.0,38,-99.99,,,0.00,0.000000,,2013-09-05 07:01:00,
2013-09-05 00:22:00,69.0,42.0,-100.00,West,279,10.0,12.0,38,-99.99,,,0.00,0.000000,,2013-09-05 07:22:00,
2013-09-05 00:52:00,70.0,44.0,-100.00,WNW,284,9.0,12.0,39,-99.99,,,0.00,0.000000,,2013-09-05 07:52:00,
2013-09-05 01:03:00,70.0,44.0,-100.00,WNW,284,9.0,12.0,39,-99.99,,,0.00,0.000000,,2013-09-05 08:03:00,
2013-09-05 01:12:00,70.0,44.0,-100.00,WNW,284,9.0,12.0,39,-99.99,,,0.00,0.000000,,2013-09-05 08:12:00,
2013-09-05 01:52:00,68.0,42.0,-100.00,West,264,11.0,14.0,39,0.00,,,0.00,0.000000,,2013-09-05 08:52:00,
2013-09-05 02:02:00,68.0,42.0,-100.00,West,264,11.0,14.0,39,0.00,,,0.00,0.000000,,2013-09-05 09:02:00,
2013-09-05 02:11:00,68.0,42.0,-100.00,West,264,11.0,14.0,39,0.00,,,0.00,0.000000,,2013-09-05 09:11:00,
2013-09-05 02:54:00,68.0,45.0,-100.00,NW,308,12.0,15.0,43,0.00,,,0.00,0.000000,,2013-09-05 09:54:00,
2013-09-05 03:03:00,68.0,45.0,-100.00,NW,308,12.0,15.0,43,0.00,,,0.00,0.000000,,2013-09-05 10:03:00,
2013-09-05 03:12:00,68.0,45.0,-100.00,NW,308,12.0,15.0,43,0.00,,,0.00,0.000000,,2013-09-05 10:12:00,
2013-09-05 03:53:00,66.0,47.0,-100.00,NW,305,13.0,16.0,51,0.00,,,0.00,0.000000,,2013-09-05 10:53:00,
2013-09-05 04:03:00,66.0,47.0,-100.00,NW,305,13.0,16.0,51,0.00,,,0.00,0.000000,,2013-09-05 11:03:00,
2013-09-05 04:12:00,66.0,47.0,-100.00,NW,305,13.0,16.0,51,0.00,,,0.00,0.000000,,2013-09-05 11:12:00,
2013-09-05 04:52:00,64.0,44.0,-100.00,NW,309,11.0,16.0,48,-99.99,,,-99.99,0.000000,,2013-09-05 11:52:00,
2013-09-05 05:01:00,64.0,44.0,-100.00,NW,309,11.0,16.0,48,-99.99,,,-99.99,0.000000,,2013-09-05 12:01:00,
2013-09-05 05:12:00,64.0,44.0,-100.00,NW,309,11.0,16.0,48,-99.99,,,-99.99,0.000000,,2013-09-05 12:12:00,
2013-09-05 05:21:00,64.0,44.0,-100.00,NW,309,11.0,16.0,48,-99.99,,,-99.99,0.000000,,2013-09-05 12:21:00,
2013-09-05 05:52:00,66.0,38.0,-100.00,WNW,284,10.0,18.0,36,0.00,,,0.00,0.000000,,2013-09-05 12:52:00,
2013-09-05 06:01:00,66.0,38.0,-100.00,WNW,284,10.0,18.0,36,0.00,,,0.00,0.000000,,2013-09-05 13:01:00,
2013-09-05 06:12:00,66.0,38.0,-100.00,WNW,284,10.0,18.0,36,0.00,,,0.00,0.000000,,2013-09-05 13:12:00,
2013-09-05 06:53:00,67.0,40.0,-100.00,West,280,9.0,15.0,37,0.00,,,0.00,0.000000,,2013-09-05 13:53:00,
2013-09-05 07:01:00,67.0,40.0,-100.00,West,280,9.0,15.0,37,0.00,,,0.00,0.000000,,2013-09-05 14:01:00,
2013-09-05 07:12:00,67.0,40.0,-100.00,West,280,9.0,15.0,37,0.00,,,0.00,0.000000,,2013-09-05 14:12:00,
2013-09-05 07:52:00,68.0,40.0,-100.00,WNW,296,9.0,15.0,36,0.00,,,0.00,0.000000,,2013-09-05 14:52:00,
2013-09-05 08:02:00,68.0,40.0,-100.00,WNW,296,9.0,15.0,36,0.00,,,0.00,0.000000,,2013-09-05 15:02:00,
2013-09-05 08:54:00,68.0,37.0,-100.00,WNW,290,5.0,12.0,32,0.00,,,0.00,85.000000,,2013-09-05 15:54:00,
2013-09-05 09:03:00,68.0,37.0,-100.00,WNW,290,5.0,12.0,32,0.00,,,0.00,85.000000,,2013-09-05 16:03:00,
2013-09-05 09:13:00,68.0,37.0,-100.00,WNW,290,5.0,12.0,32,0.00,,,0.00,85.000000,,2013-09-05 16:13:00,
2013-09-05 09:23:00,68.0,37.0,-100.00,WNW,290,5.0,12.0,32,0.00,,,0.00,85.000000,,2013-09-05 16:23:00,
2013-09-05 09:54:00,73.0,36.0,-100.00,South,173,3.0,10.0,26,0.00,,,0.00,334.000000,,2013-09-05 16:54:00,
2013-09-05 10:03:00,73.0,36.0,-100.00,South,173,3.0,10.0,26,0.00,,,0.00,334.000000,,2013-09-05 17:03:00,
2013-09-05 10:12:00,73.0,36.0,-100.00,South,173,3.0,10.0,26,0.00,,,0.00,334.000000,,2013-09-05 17:12:00,
2013-09-05 10:23:00,73.0,36.0,-100.00,South,173,3.0,10.0,26,0.00,,,0.00,334.000000,,2013-09-05 17:23:00,
2013-09-05 10:52:00,80.0,45.0,-100.00,SSW,201,8.0,8.0,29,0.00,,,-99.99,582.000000,,2013-09-05 17:52:00,
2013-09-05 11:02:00,80.0,45.0,-100.00,SSW,201,8.0,8.0,29,0.00,,,-99.99,582.000000,,2013-09-05 18:02:00,
2013-09-05 11:12:00,80.0,45.0,-100.00,SSW,201,8.0,8.0,29,0.00,,,-99.99,582.000000,,2013-09-05 18:12:00,
2013-09-05 11:52:00,77.0,36.0,-100.00,WSW,242,3.0,12.0,23,0.00,,,0.00,841.000000,,2013-09-05 18:52:00,
2013-09-05 12:01:00,77.0,36.0,-100.00,WSW,242,3.0,12.0,23,0.00,,,0.00,841.000000,,2013-09-05 19:01:00,
2013-09-05 12:11:00,77.0,36.0,-100.00,WSW,242,3.0,12.0,23,0.00,,,0.00,841.000000,,2013-09-05 19:11:00,
2013-09-05 12:21:00,77.0,36.0,-100.00,WSW,242,3.0,12.0,23,0.00,,,0.00,841.000000,,2013-09-05 19:21:00,
2013-09-05 12:52:00,85.0,43.0,-100.00,NNW,329,10.0,14.0,23,0.00,,,-99.99,1020.000000,,2013-09-05 19:52:00,
2013-09-05 13:03:00,85.0,43.0,-100.00,NNW,329,10.0,14.0,23,0.00,,,-99.99,1020.000000,,2013-09-05 20:03:00,
2013-09-05 13:11:00,85.0,43.0,-100.00,NNW,329,10.0,14.0,23,0.00,,,-99.99,1020.000000,,2013-09-05 20:11:00,
2013-09-05 13:22:00,85.0,43.0,-100.00,NNW,329,10.0,14.0,23,0.00,,,-99.99,1020.000000,,2013-09-05 20:22:00,
2013-09-05 13:52:00,85.0,45.0,-100.00,West,260,11.0,19.0,25,0.00,,,0.00,1161.000000,,2013-09-05 20:52:00,
2013-09-05 14:02:00,85.0,45.0,-100.00,West,260,11.0,19.0,25,0.00,,,0.00,1161.000000,,2013-09-05 21:02:00,
2013-09-05 14:12:00,85.0,45.0,-100.00,West,260,11.0,19.0,25,0.00,,,0.00,1161.000000,,2013-09-05 21:12:00,
2013-09-05 14:21:00,85.0,45.0,-100.00,West,260,11.0,19.0,25,0.00,,,0.00,1161.000000,,2013-09-05 21:21:00,
2013-09-05 14:54:00,81.0,42.0,-100.00,West,268,9.0,25.0,25,0.00,,,0.00,969.000000,,2013-09-05 21:54:00,
2013-09-05 15:04:00,81.0,42.0,-100.00,West,268,9.0,25.0,25,0.00,,,0.00,969.000000,,2013-09-05 22:04:00,
2013-09-05 15:13:00,81.0,42.0,-100.00,West,268,9.0,25.0,25,0.00,,,0.00,969.000000,,2013-09-05 22:13:00,
2013-09-05 15:24:00,81.0,42.0,-100.00,West,268,9.0,25.0,25,0.00,,,0.00,969.000000,,2013-09-05 22:24:00,
2013-09-05 15:53:00,81.0,36.0,-100.00,West,278,4.0,17.0,20,0.00,,,0.00,498.000000,,2013-09-05 22:53:00,
2013-09-05 16:02:00,81.0,36.0,-100.00,West,278,4.0,17.0,20,0.00,,,0.00,498.000000,,2013-09-05 23:02:00,
2013-09-05 16:12:00,81.0,36.0,-100.00,West,278,4.0,17.0,20,0.00,,,0.00,498.000000,,2013-09-05 23:12:00,
2013-09-05 16:22:00,81.0,36.0,-100.00,West,278,4.0,17.0,20,0.00,,,0.00,498.000000,,2013-09-05 23:22:00,
2013-09-05 16:53:00,87.0,41.0,-100.00,NW,304,5.0,20.0,20,0.00,,,0.00,835.000000,,2013-09-05 23:53:00,
2013-09-05 17:02:00,87.0,41.0,-100.00,NW,304,5.0,20.0,20,0.00,,,0.00,835.000000,,2013-09-06 00:02:00,
2013-09-05 17:12:00,87.0,41.0,-100.00,NW,304,5.0,20.0,20,0.00,,,0.00,835.000000,,2013-09-06 00:12:00,
2013-09-05 18:11:00,86.0,46.0,-100.00,NW,309,10.0,20.0,25,0.00,,,0.00,866.000000,,2013-09-06 01:11:00,
2013-09-05 18:52:00,80.0,44.0,-100.00,NW,316,8.0,21.0,28,0.00,,,0.00,511.000000,,2013-09-06 01:52:00,
2013-09-05 19:02:00,80.0,44.0,-100.00,NW,316,8.0,21.0,28,0.00,,,0.00,511.000000,,2013-09-06 02:02:00,
2013-09-05 19:11:00,80.0,44.0,-100.00,NW,316,8.0,21.0,28,0.00,,,0.00,511.000000,,2013-09-06 02:11:00,
2013-09-05 19:22:00,80.0,44.0,-100.00,NW,316,8.0,21.0,28,0.00,,,0.00,511.000000,,2013-09-06 02:22:00,
2013-09-05 19:52:00,77.0,46.0,-100.00,NW,324,10.0,21.0,33,0.00,,,0.00,172.000000,,2013-09-06 02:52:00,
2013-09-05 20:02:00,77.0,46.0,-100.00,NW,324,10.0,21.0,33,0.00,,,0.00,172.000000,,2013-09-06 03:02:00,
2013-09-05 20:11:00,77.0,46.0,-100.00,NW,324,10.0,21.0,33,0.00,,,0.00,172.000000,,2013-09-06 03:11:00,
2013-09-05 20:22:00,77.0,46.0,-100.00,NW,324,10.0,21.0,33,0.00,,,0.00,172.000000,,2013-09-06 03:22:00,
2013-09-05 20:55:00,71.0,42.0,-100.00,NW,322,14.0,20.0,35,0.00,,,0.00,49.000000,,2013-09-06 03:55:00,
2013-09-05 21:04:00,71.0,42.0,-100.00,NW,322,14.0,20.0,35,0.00,,,0.00,49.000000,,2013-09-06 04:04:00,
2013-09-05 21:13:00,71.0,42.0,-100.00,NW,322,14.0,20.0,35,0.00,,,0.00,49.000000,,2013-09-06 04:13:00,
2013-09-05 21:23:00,71.0,42.0,-100.00,NW,322,14.0,20.0,35,0.00,,,0.00,49.000000,,2013-09-06 04:23:00,
2013-09-05 21:54:00,69.0,41.0,-100.00,NW,313,16.0,18.0,36,0.00,,,-99.99,0.000000,,2013-09-06 04:54:00,
2013-09-05 22:03:00,69.0,41.0,-100.00,NW,313,16.0,18.0,36,0.00,,,-99.99,0.000000,,2013-09-06 05:03:00,
2013-09-05 22:12:00,69.0,41.0,-100.00,NW,313,16.0,18.0,36,0.00,,,-99.99,0.000000,,2013-09-06 05:12:00,
2013-09-05 22:23:00,69.0,41.0,-100.00,NW,313,16.0,18.0,36,0.00,,,-99.99,0.000000,,2013-09-06 05:23:00,
2013-09-05 22:52:00,68.0,41.0,-100.00,NW,319,15.0,20.0,37,0.00,,,0.00,0.000000,,2013-09-06 05:52:00,
2013-09-05 23:02:00,68.0,41.0,-100.00,NW,319,15.0,20.0,37,0.00,,,0.00,0.000000,,2013-09-06 06:02:00,
2013-09-05 23:11:00,68.0,41.0,-100.00,NW,319,15.0,20.0,37,0.00,,,0.00,0.000000,,2013-09-06 06:11:00,
2013-09-05 23:21:00,68.0,41.0,-100.00,NW,319,15.0,20.0,37,0.00,,,0.00,0.000000,,2013-09-06 06:21:00,